sensor_id;sensor_type;location;lat;lon;timestamp;pressure;altitude;pressure_sealevel;temperature;humidity
10940;BME280;5522;42.696;23.494;2023-02-14T00:01:51;53664.84;;;-139.68;100.00
10940;BME280;5522;42.696;23.494;2023-02-14T00:04:19;53642.72;;;-139.68;100.00
10940;BME280;5522;42.696;23.494;2023-02-14T00:06:46;53684.94;;;-139.68;100.00
10940;BME280;5522;42.696;23.494;2023-02-14T00:09:16;53686.97;;;-139.68;100.00
10940;BME280;5522;42.696;23.494;2023-02-14T00:11:43;53688.97;;;-139.68;100.00
10940;BME280;5522;42.696;23.494;2023-02-14T00:14:11;53646.75;;;-139.68;100.00
10940;BME280;5522;42.696;23.494;2023-02-14T00:16:55;53648.75;;;-139.68;100.00
10940;BME280;5522;42.696;23.494;2023-02-14T00:19:23;53648.75;;;-139.68;100.00
10940;BME280;5522;42.696;23.494;2023-02-14T00:21:50;53678.91;;;-139.68;100.00
10940;BME280;5522;42.696;23.494;2023-02-14T00:24:19;53680.94;;;-139.68;100.00
10940;BME280;5522;42.696;23.494;2023-02-14T00:26:48;53652.78;;;-139.68;100.00
10940;BME280;5522;42.696;23.494;2023-02-14T00:29:16;53682.94;;;-139.68;100.00
10940;BME280;5522;42.696;23.494;2023-02-14T00:31:44;53682.94;;;-139.68;100.00
10940;BME280;5522;42.696;23.494;2023-02-14T00:34:11;53662.84;;;-139.68;100.00
10940;BME280;5522;42.696;23.494;2023-02-14T00:36:41;53666.84;;;-139.68;100.00
10940;BME280;5522;42.696;23.494;2023-02-14T00:39:09;53674.91;;;-139.68;100.00
10940;BME280;5522;42.696;23.494;2023-02-14T00:41:37;53674.91;;;-139.68;100.00
10940;BME280;5522;42.696;23.494;2023-02-14T00:44:04;53662.84;;;-139.68;100.00
10940;BME280;5522;42.696;23.494;2023-02-14T00:46:32;53678.91;;;-139.68;100.00
10940;BME280;5522;42.696;23.494;2023-02-14T00:48:59;53618.63;;;-139.68;100.00
10940;BME280;5522;42.696;23.494;2023-02-14T00:51:26;53658.81;;;-139.68;100.00
10940;BME280;5522;42.696;23.494;2023-02-14T00:53:54;53634.69;;;-139.68;100.00
10940;BME280;5522;42.696;23.494;2023-02-14T00:56:21;53650.78;;;-139.68;100.00
10940;BME280;5522;42.696;23.494;2023-02-14T00:58:48;53634.69;;;-139.68;100.00
10940;BME280;5522;42.696;23.494;2023-02-14T01:06:25;53644.75;;;-139.68;100.00
10940;BME280;5522;42.696;23.494;2023-02-14T01:08:54;53594.50;;;-139.68;100.00
10940;BME280;5522;42.696;23.494;2023-02-14T01:11:22;53620.63;;;-139.68;100.00
10940;BME280;5522;42.696;23.494;2023-02-14T01:13:50;53662.84;;;-139.68;100.00
10940;BME280;5522;42.696;23.494;2023-02-14T01:16:20;53654.78;;;-139.68;100.00
10940;BME280;5522;42.696;23.494;2023-02-14T01:18:48;53686.97;;;-139.68;100.00
10940;BME280;5522;42.696;23.494;2023-02-14T01:21:17;53662.84;;;-139.68;100.00
10940;BME280;5522;42.696;23.494;2023-02-14T01:23:45;53658.81;;;-139.68;100.00
10940;BME280;5522;42.696;23.494;2023-02-14T01:26:15;53638.72;;;-139.68;100.00
10940;BME280;5522;42.696;23.494;2023-02-14T01:28:43;53654.78;;;-139.68;100.00
10940;BME280;5522;42.696;23.494;2023-02-14T01:31:12;53638.72;;;-139.68;100.00
10940;BME280;5522;42.696;23.494;2023-02-14T01:33:43;53624.63;;;-139.68;100.00
10940;BME280;5522;42.696;23.494;2023-02-14T01:36:15;53640.72;;;-139.68;100.00
10940;BME280;5522;42.696;23.494;2023-02-14T01:38:42;53658.81;;;-139.68;100.00
10940;BME280;5522;42.696;23.494;2023-02-14T01:41:10;53650.78;;;-139.68;100.00
10940;BME280;5522;42.696;23.494;2023-02-14T01:43:53;53682.94;;;-139.68;100.00
10940;BME280;5522;42.696;23.494;2023-02-14T01:46:20;53674.91;;;-139.68;100.00
10940;BME280;5522;42.696;23.494;2023-02-14T01:48:48;53678.91;;;-139.68;100.00
10940;BME280;5522;42.696;23.494;2023-02-14T01:51:17;53666.84;;;-139.68;100.00
10940;BME280;5522;42.696;23.494;2023-02-14T01:53:46;53666.84;;;-139.68;100.00
10940;BME280;5522;42.696;23.494;2023-02-14T01:56:18;53658.81;;;-139.68;100.00
10940;BME280;5522;42.696;23.494;2023-02-14T01:58:45;53672.88;;;-139.68;100.00
10940;BME280;5522;42.696;23.494;2023-02-14T02:01:17;53620.63;;;-139.68;100.00
10940;BME280;5522;42.696;23.494;2023-02-14T02:03:47;53642.72;;;-139.68;100.00
10940;BME280;5522;42.696;23.494;2023-02-14T02:06:16;53610.56;;;-139.68;100.00
10940;BME280;5522;42.696;23.494;2023-02-14T02:08:49;53620.63;;;-139.68;100.00
10940;BME280;5522;42.696;23.494;2023-02-14T02:11:19;53644.75;;;-139.68;100.00
10940;BME280;5522;42.696;23.494;2023-02-14T02:13:46;53668.88;;;-139.68;100.00
10940;BME280;5522;42.696;23.494;2023-02-14T02:16:32;53670.88;;;-139.68;100.00
10940;BME280;5522;42.696;23.494;2023-02-14T02:19:18;53642.72;;;-139.68;100.00
10940;BME280;5522;42.696;23.494;2023-02-14T02:22:07;53658.81;;;-139.68;100.00
10940;BME280;5522;42.696;23.494;2023-02-14T02:24:47;53678.91;;;-139.68;100.00
10940;BME280;5522;42.696;23.494;2023-02-14T02:30:53;53652.78;;;-139.68;100.00
10940;BME280;5522;42.696;23.494;2023-02-14T02:37:08;53670.88;;;-139.68;100.00
10940;BME280;5522;42.696;23.494;2023-02-14T02:39:47;53678.91;;;-139.68;100.00
10940;BME280;5522;42.696;23.494;2023-02-14T02:42:23;53680.94;;;-139.68;100.00
10940;BME280;5522;42.696;23.494;2023-02-14T02:45:04;53682.94;;;-139.68;100.00
10940;BME280;5522;42.696;23.494;2023-02-14T02:47:37;53660.81;;;-139.68;100.00
10940;BME280;5522;42.696;23.494;2023-02-14T02:50:19;53666.84;;;-139.68;100.00
10940;BME280;5522;42.696;23.494;2023-02-14T02:53:15;53654.78;;;-139.68;100.00
10940;BME280;5522;42.696;23.494;2023-02-14T02:55:48;53642.72;;;-139.68;100.00
10940;BME280;5522;42.696;23.494;2023-02-14T02:58:35;53626.66;;;-139.68;100.00
10940;BME280;5522;42.696;23.494;2023-02-14T03:01:08;53713.09;;;-139.68;100.00
10940;BME280;5522;42.696;23.494;2023-02-14T03:03:36;53686.97;;;-139.68;100.00
10940;BME280;5522;42.696;23.494;2023-02-14T03:06:22;53634.69;;;-139.68;100.00
10940;BME280;5522;42.696;23.494;2023-02-14T03:08:50;53666.84;;;-139.68;100.00
10940;BME280;5522;42.696;23.494;2023-02-14T03:11:17;53686.97;;;-139.68;100.00
10940;BME280;5522;42.696;23.494;2023-02-14T03:14:07;53650.78;;;-139.68;100.00
10940;BME280;5522;42.696;23.494;2023-02-14T03:16:43;53646.75;;;-139.68;100.00
10940;BME280;5522;42.696;23.494;2023-02-14T03:19:31;53668.88;;;-139.68;100.00
10940;BME280;5522;42.696;23.494;2023-02-14T03:22:07;53662.84;;;-139.68;100.00
10940;BME280;5522;42.696;23.494;2023-02-14T03:24:43;53656.81;;;-139.68;100.00
10940;BME280;5522;42.696;23.494;2023-02-14T03:27:17;53670.88;;;-139.68;100.00
10940;BME280;5522;42.696;23.494;2023-02-14T03:29:54;53638.72;;;-139.68;100.00
10940;BME280;5522;42.696;23.494;2023-02-14T03:32:30;53664.84;;;-139.68;100.00
10940;BME280;5522;42.696;23.494;2023-02-14T03:35:08;53713.09;;;-139.68;100.00
10940;BME280;5522;42.696;23.494;2023-02-14T03:37:41;53662.84;;;-139.68;100.00
10940;BME280;5522;42.696;23.494;2023-02-14T03:40:14;53662.84;;;-139.68;100.00
10940;BME280;5522;42.696;23.494;2023-02-14T03:42:47;53644.75;;;-139.68;100.00
10940;BME280;5522;42.696;23.494;2023-02-14T03:45:22;53670.88;;;-139.68;100.00
10940;BME280;5522;42.696;23.494;2023-02-14T03:47:53;53646.75;;;-139.68;100.00
10940;BME280;5522;42.696;23.494;2023-02-14T03:50:22;53695.00;;;-139.68;100.00
10940;BME280;5522;42.696;23.494;2023-02-14T03:52:52;53672.88;;;-139.68;100.00
10940;BME280;5522;42.696;23.494;2023-02-14T03:55:24;53658.81;;;-139.68;100.00
10940;BME280;5522;42.696;23.494;2023-02-14T03:57:56;53682.94;;;-139.68;100.00
10940;BME280;5522;42.696;23.494;2023-02-14T04:00:28;53676.91;;;-139.68;100.00
10940;BME280;5522;42.696;23.494;2023-02-14T04:03:01;53703.03;;;-139.68;100.00
10940;BME280;5522;42.696;23.494;2023-02-14T04:05:29;53662.84;;;-139.68;100.00
10940;BME280;5522;42.696;23.494;2023-02-14T04:07:57;53703.03;;;-139.68;100.00
10940;BME280;5522;42.696;23.494;2023-02-14T04:10:26;53676.91;;;-139.68;100.00
10940;BME280;5522;42.696;23.494;2023-02-14T04:12:53;53638.72;;;-139.68;100.00
10940;BME280;5522;42.696;23.494;2023-02-14T04:15:20;53688.97;;;-139.68;100.00
10940;BME280;5522;42.696;23.494;2023-02-14T04:17:47;53664.84;;;-139.68;100.00
10940;BME280;5522;42.696;23.494;2023-02-14T04:20:31;53703.03;;;-139.68;100.00
10940;BME280;5522;42.696;23.494;2023-02-14T04:22:58;53622.63;;;-139.68;100.00
10940;BME280;5522;42.696;23.494;2023-02-14T04:25:26;53695.00;;;-139.68;100.00
10940;BME280;5522;42.696;23.494;2023-02-14T04:27:53;53668.88;;;-139.68;100.00
10940;BME280;5522;42.696;23.494;2023-02-14T04:30:20;53703.03;;;-139.68;100.00
10940;BME280;5522;42.696;23.494;2023-02-14T04:32:47;53695.00;;;-139.68;100.00
10940;BME280;5522;42.696;23.494;2023-02-14T04:35:14;53678.91;;;-139.68;100.00
10940;BME280;5522;42.696;23.494;2023-02-14T04:37:41;53701.03;;;-139.68;100.00
10940;BME280;5522;42.696;23.494;2023-02-14T04:40:09;53703.03;;;-139.68;100.00
10940;BME280;5522;42.696;23.494;2023-02-14T04:42:37;53699.03;;;-139.68;100.00
10940;BME280;5522;42.696;23.494;2023-02-14T04:45:05;53670.88;;;-139.68;100.00
10940;BME280;5522;42.696;23.494;2023-02-14T04:47:32;53699.03;;;-139.68;100.00
10940;BME280;5522;42.696;23.494;2023-02-14T04:49:58;53648.75;;;-139.68;100.00
10940;BME280;5522;42.696;23.494;2023-02-14T04:52:25;53634.69;;;-139.68;100.00
10940;BME280;5522;42.696;23.494;2023-02-14T04:54:52;53626.66;;;-139.68;100.00
10940;BME280;5522;42.696;23.494;2023-02-14T04:57:19;53695.00;;;-139.68;100.00
10940;BME280;5522;42.696;23.494;2023-02-14T04:59:47;53652.78;;;-139.68;100.00
10940;BME280;5522;42.696;23.494;2023-02-14T05:02:14;53654.78;;;-139.68;100.00
10940;BME280;5522;42.696;23.494;2023-02-14T05:04:41;53642.72;;;-139.68;100.00
10940;BME280;5522;42.696;23.494;2023-02-14T05:07:08;53674.91;;;-139.68;100.00
10940;BME280;5522;42.696;23.494;2023-02-14T05:09:35;53658.81;;;-139.68;100.00
10940;BME280;5522;42.696;23.494;2023-02-14T05:12:01;53656.81;;;-139.68;100.00
10940;BME280;5522;42.696;23.494;2023-02-14T05:14:28;53678.91;;;-139.68;100.00
10940;BME280;5522;42.696;23.494;2023-02-14T05:16:57;53682.94;;;-139.68;100.00
10940;BME280;5522;42.696;23.494;2023-02-14T05:19:23;53664.84;;;-139.68;100.00
10940;BME280;5522;42.696;23.494;2023-02-14T05:21:50;53646.75;;;-139.68;100.00
10940;BME280;5522;42.696;23.494;2023-02-14T05:24:17;53715.09;;;-139.68;100.00
10940;BME280;5522;42.696;23.494;2023-02-14T05:26:44;53699.03;;;-139.68;100.00
10940;BME280;5522;42.696;23.494;2023-02-14T05:29:11;53646.75;;;-139.68;100.00
10940;BME280;5522;42.696;23.494;2023-02-14T05:31:37;53662.84;;;-139.68;100.00
10940;BME280;5522;42.696;23.494;2023-02-14T05:34:06;53674.91;;;-139.68;100.00
10940;BME280;5522;42.696;23.494;2023-02-14T05:36:32;53654.78;;;-139.68;100.00
10940;BME280;5522;42.696;23.494;2023-02-14T05:38:59;53690.97;;;-139.68;100.00
10940;BME280;5522;42.696;23.494;2023-02-14T05:41:26;53650.78;;;-139.68;100.00
10940;BME280;5522;42.696;23.494;2023-02-14T05:43:53;53656.81;;;-139.68;100.00
10940;BME280;5522;42.696;23.494;2023-02-14T05:46:20;53686.97;;;-139.68;100.00
10940;BME280;5522;42.696;23.494;2023-02-14T05:48:47;53682.94;;;-139.68;100.00
10940;BME280;5522;42.696;23.494;2023-02-14T05:51:15;53684.94;;;-139.68;100.00
10940;BME280;5522;42.696;23.494;2023-02-14T05:53:42;53678.91;;;-139.68;100.00
10940;BME280;5522;42.696;23.494;2023-02-14T05:56:09;53674.91;;;-139.68;100.00
10940;BME280;5522;42.696;23.494;2023-02-14T05:58:36;53666.84;;;-139.68;100.00
10940;BME280;5522;42.696;23.494;2023-02-14T06:01:03;53715.09;;;-139.68;100.00
10940;BME280;5522;42.696;23.494;2023-02-14T06:03:29;53713.09;;;-139.68;100.00
10940;BME280;5522;42.696;23.494;2023-02-14T06:05:56;53743.25;;;-139.68;100.00
10940;BME280;5522;42.696;23.494;2023-02-14T06:08:24;53650.78;;;-139.68;100.00
10940;BME280;5522;42.696;23.494;2023-02-14T06:10:51;53688.97;;;-139.68;100.00
10940;BME280;5522;42.696;23.494;2023-02-14T06:13:18;53715.09;;;-139.68;100.00
10940;BME280;5522;42.696;23.494;2023-02-14T06:15:45;53713.09;;;-139.68;100.00
10940;BME280;5522;42.696;23.494;2023-02-14T06:18:12;53723.13;;;-139.68;98.94
10940;BME280;5522;42.696;23.494;2023-02-14T06:20:39;53715.09;;;-139.68;93.99
10940;BME280;5522;42.696;23.494;2023-02-14T06:23:06;53731.19;;;-139.68;91.46
10940;BME280;5522;42.696;23.494;2023-02-14T06:25:34;53759.31;;;-139.68;84.02
10940;BME280;5522;42.696;23.494;2023-02-14T06:28:01;53761.34;;;-139.68;79.17
10940;BME280;5522;42.696;23.494;2023-02-14T06:30:27;53759.31;;;-139.68;61.51
10940;BME280;5522;42.696;23.494;2023-02-14T06:32:54;53775.41;;;-139.68;50.80
10940;BME280;5522;42.696;23.494;2023-02-14T06:35:21;53825.66;;;-139.68;46.69
10940;BME280;5522;42.696;23.494;2023-02-14T06:37:48;53823.66;;;-139.68;41.38
10940;BME280;5522;42.696;23.494;2023-02-14T06:40:15;53815.63;;;-139.68;39.97
10940;BME280;5522;42.696;23.494;2023-02-14T06:42:45;53835.72;;;-139.68;38.75
10940;BME280;5522;42.696;23.494;2023-02-14T06:45:12;53835.72;;;-139.68;36.97
10940;BME280;5522;42.696;23.494;2023-02-14T06:47:38;53799.53;;;-139.68;35.49
10940;BME280;5522;42.696;23.494;2023-02-14T06:50:06;53817.63;;;-139.68;34.65
10940;BME280;5522;42.696;23.494;2023-02-14T06:52:36;53861.84;;;-139.68;33.88
10940;BME280;5522;42.696;23.494;2023-02-14T06:55:02;53855.81;;;-139.68;33.04
10940;BME280;5522;42.696;23.494;2023-02-14T06:57:29;53839.75;;;-139.68;33.93
10940;BME280;5522;42.696;23.494;2023-02-14T06:59:58;53847.78;;;-139.68;34.84
10940;BME280;5522;42.696;23.494;2023-02-14T07:02:24;53823.66;;;-139.68;35.03
10940;BME280;5522;42.696;23.494;2023-02-14T07:04:51;53847.78;;;-139.68;34.50
10940;BME280;5522;42.696;23.494;2023-02-14T07:07:18;53839.75;;;-139.68;34.67
10940;BME280;5522;42.696;23.494;2023-02-14T07:09:45;53833.72;;;-139.68;34.08
10940;BME280;5522;42.696;23.494;2023-02-14T07:12:12;53871.91;;;-139.68;33.33
10940;BME280;5522;42.696;23.494;2023-02-14T07:14:39;53873.91;;;-139.68;32.23
10940;BME280;5522;42.696;23.494;2023-02-14T07:17:07;53871.91;;;-139.68;33.09
10940;BME280;5522;42.696;23.494;2023-02-14T07:19:34;53863.88;;;-139.68;34.81
10940;BME280;5522;42.696;23.494;2023-02-14T07:22:01;53843.75;;;-139.68;36.01
10940;BME280;5522;42.696;23.494;2023-02-14T07:24:28;53851.81;;;-139.68;36.55
10940;BME280;5522;42.696;23.494;2023-02-14T07:26:54;53865.88;;;-139.68;37.91
10940;BME280;5522;42.696;23.494;2023-02-14T07:29:21;53823.66;;;-139.68;40.21
10940;BME280;5522;42.696;23.494;2023-02-14T07:31:48;53859.84;;;-139.68;44.29
10940;BME280;5522;42.696;23.494;2023-02-14T07:34:17;53847.78;;;-139.68;54.02
10940;BME280;5522;42.696;23.494;2023-02-14T07:36:43;53791.50;;;-139.68;70.82
10940;BME280;5522;42.696;23.494;2023-02-14T07:39:11;53837.72;;;-139.68;80.26
10940;BME280;5522;42.696;23.494;2023-02-14T07:41:38;53813.59;;;-139.68;86.36
10940;BME280;5522;42.696;23.494;2023-02-14T07:44:04;53815.63;;;-139.68;89.95
10940;BME280;5522;42.696;23.494;2023-02-14T07:46:31;53837.72;;;-139.68;88.92
10940;BME280;5522;42.696;23.494;2023-02-14T07:48:58;53815.63;;;-139.68;89.72
10940;BME280;5522;42.696;23.494;2023-02-14T07:51:26;53811.59;;;-139.68;91.38
10940;BME280;5522;42.696;23.494;2023-02-14T07:53:53;53843.75;;;-139.68;94.85
10940;BME280;5522;42.696;23.494;2023-02-14T07:56:20;53779.44;;;-139.68;96.62
10940;BME280;5522;42.696;23.494;2023-02-14T07:58:47;53771.38;;;-139.68;95.82
10940;BME280;5522;42.696;23.494;2023-02-14T08:01:14;53825.66;;;-139.68;91.62
10940;BME280;5522;42.696;23.494;2023-02-14T08:03:41;53831.69;;;-139.68;88.76
10940;BME280;5522;42.696;23.494;2023-02-14T08:06:10;53815.63;;;-139.68;89.53
10940;BME280;5522;42.696;23.494;2023-02-14T08:08:39;53803.56;;;-139.68;92.21
10940;BME280;5522;42.696;23.494;2023-02-14T08:11:05;53803.56;;;-139.68;94.89
10940;BME280;5522;42.696;23.494;2023-02-14T08:13:32;53807.56;;;-139.68;96.28
10940;BME280;5522;42.696;23.494;2023-02-14T08:15:58;53823.66;;;-139.68;96.39
10940;BME280;5522;42.696;23.494;2023-02-14T08:18:33;53865.88;;;-139.68;96.34
10940;BME280;5522;42.696;23.494;2023-02-14T08:21:01;53835.72;;;-139.68;98.12
10940;BME280;5522;42.696;23.494;2023-02-14T08:23:28;53809.59;;;-139.68;96.60
10940;BME280;5522;42.696;23.494;2023-02-14T08:25:57;53813.59;;;-139.68;95.71
10940;BME280;5522;42.696;23.494;2023-02-14T08:28:25;53797.53;;;-139.68;95.40
10940;BME280;5522;42.696;23.494;2023-02-14T08:30:52;53799.53;;;-139.68;94.07
10940;BME280;5522;42.696;23.494;2023-02-14T08:33:20;53793.50;;;-139.68;93.16
10940;BME280;5522;42.696;23.494;2023-02-14T08:35:47;53827.69;;;-139.68;94.28
10940;BME280;5522;42.696;23.494;2023-02-14T08:38:14;53861.84;;;-139.68;94.14
10940;BME280;5522;42.696;23.494;2023-02-14T08:40:41;53813.59;;;-139.68;91.88
10940;BME280;5522;42.696;23.494;2023-02-14T08:43:10;53793.50;;;-139.68;90.90
10940;BME280;5522;42.696;23.494;2023-02-14T08:45:37;53823.66;;;-139.68;89.09
10940;BME280;5522;42.696;23.494;2023-02-14T08:48:06;53795.50;;;-139.68;90.76
10940;BME280;5522;42.696;23.494;2023-02-14T08:50:34;53859.84;;;-139.68;91.28
10940;BME280;5522;42.696;23.494;2023-02-14T08:53:05;53815.63;;;-139.68;91.15
10940;BME280;5522;42.696;23.494;2023-02-14T08:55:33;53799.53;;;-139.68;91.35
10940;BME280;5522;42.696;23.494;2023-02-14T08:58:01;53791.50;;;-139.68;91.86
10940;BME280;5522;42.696;23.494;2023-02-14T09:00:30;53805.56;;;-139.68;92.15
10940;BME280;5522;42.696;23.494;2023-02-14T09:02:57;53831.69;;;-139.68;90.80
10940;BME280;5522;42.696;23.494;2023-02-14T09:05:25;53767.38;;;-139.68;93.08
10940;BME280;5522;42.696;23.494;2023-02-14T09:07:52;53821.66;;;-139.68;94.94
10940;BME280;5522;42.696;23.494;2023-02-14T09:10:22;53841.75;;;-139.68;95.51
10940;BME280;5522;42.696;23.494;2023-02-14T09:12:49;53799.53;;;-139.68;93.06
10940;BME280;5522;42.696;23.494;2023-02-14T09:15:16;53827.69;;;-139.68;90.03
10940;BME280;5522;42.696;23.494;2023-02-14T09:17:45;53835.72;;;-139.68;82.91
10940;BME280;5522;42.696;23.494;2023-02-14T09:20:13;53819.63;;;-139.68;77.52
10940;BME280;5522;42.696;23.494;2023-02-14T09:22:40;53863.88;;;-139.68;70.95
10940;BME280;5522;42.696;23.494;2023-02-14T09:25:07;53859.84;;;-139.68;66.30
10940;BME280;5522;42.696;23.494;2023-02-14T09:27:35;53857.84;;;-139.68;68.71
10940;BME280;5522;42.696;23.494;2023-02-14T09:30:05;53789.47;;;-139.68;73.41
10940;BME280;5522;42.696;23.494;2023-02-14T09:32:32;53825.66;;;-139.68;75.82
10940;BME280;5522;42.696;23.494;2023-02-14T09:35:01;53803.56;;;-139.68;81.20
10940;BME280;5522;42.696;23.494;2023-02-14T09:37:28;53811.59;;;-139.68;82.39
10940;BME280;5522;42.696;23.494;2023-02-14T09:40:13;53775.41;;;-139.68;83.73
10940;BME280;5522;42.696;23.494;2023-02-14T09:43:00;53849.78;;;-139.68;85.39
10940;BME280;5522;42.696;23.494;2023-02-14T09:45:29;53805.56;;;-139.68;87.27
10940;BME280;5522;42.696;23.494;2023-02-14T09:48:01;53795.50;;;-139.68;85.99
10940;BME280;5522;42.696;23.494;2023-02-14T09:50:33;53837.72;;;-139.68;85.17
10940;BME280;5522;42.696;23.494;2023-02-14T09:53:02;53825.66;;;-139.68;85.30
10940;BME280;5522;42.696;23.494;2023-02-14T09:55:37;53839.75;;;-139.68;89.05
10940;BME280;5522;42.696;23.494;2023-02-14T09:58:10;53813.59;;;-139.68;94.15
10940;BME280;5522;42.696;23.494;2023-02-14T10:00:44;53797.53;;;-139.68;94.04
10940;BME280;5522;42.696;23.494;2023-02-14T10:03:33;53841.75;;;-139.68;93.58
10940;BME280;5522;42.696;23.494;2023-02-14T10:06:11;53831.69;;;-139.68;95.16
10940;BME280;5522;42.696;23.494;2023-02-14T10:08:53;53819.63;;;-139.68;94.77
10940;BME280;5522;42.696;23.494;2023-02-14T10:11:22;53791.50;;;-139.68;96.69
10940;BME280;5522;42.696;23.494;2023-02-14T10:13:52;53831.69;;;-139.68;98.01
10940;BME280;5522;42.696;23.494;2023-02-14T10:16:23;53833.72;;;-139.68;98.53
10940;BME280;5522;42.696;23.494;2023-02-14T10:18:56;53837.72;;;-139.68;97.09
10940;BME280;5522;42.696;23.494;2023-02-14T10:21:30;53851.81;;;-139.68;95.90
10940;BME280;5522;42.696;23.494;2023-02-14T10:24:02;53849.78;;;-139.68;95.59
10940;BME280;5522;42.696;23.494;2023-02-14T10:26:35;53793.50;;;-139.68;96.84
10940;BME280;5522;42.696;23.494;2023-02-14T10:29:05;53843.75;;;-139.68;98.55
10940;BME280;5522;42.696;23.494;2023-02-14T10:31:38;53835.72;;;-139.68;96.93
10940;BME280;5522;42.696;23.494;2023-02-14T10:34:11;53817.63;;;-139.68;96.39
10940;BME280;5522;42.696;23.494;2023-02-14T10:36:54;53827.69;;;-139.68;96.07
10940;BME280;5522;42.696;23.494;2023-02-14T10:39:35;53795.50;;;-139.68;95.64
10940;BME280;5522;42.696;23.494;2023-02-14T10:42:15;53789.47;;;-139.68;94.44
10940;BME280;5522;42.696;23.494;2023-02-14T10:44:52;53807.56;;;-139.68;92.89
10940;BME280;5522;42.696;23.494;2023-02-14T10:47:28;53859.84;;;-139.68;93.61
10940;BME280;5522;42.696;23.494;2023-02-14T10:50:01;53857.84;;;-139.68;93.43
10940;BME280;5522;42.696;23.494;2023-02-14T10:52:38;53819.63;;;-139.68;93.57
10940;BME280;5522;42.696;23.494;2023-02-14T10:55:11;53799.53;;;-139.68;94.04
10940;BME280;5522;42.696;23.494;2023-02-14T10:57:43;53803.56;;;-139.68;93.56
10940;BME280;5522;42.696;23.494;2023-02-14T11:00:19;53823.66;;;-139.68;93.46
10940;BME280;5522;42.696;23.494;2023-02-14T11:02:50;53801.53;;;-139.68;94.07
10940;BME280;5522;42.696;23.494;2023-02-14T11:05:24;53831.69;;;-139.68;94.11
10940;BME280;5522;42.696;23.494;2023-02-14T11:07:54;53821.66;;;-139.68;92.20
10940;BME280;5522;42.696;23.494;2023-02-14T11:10:26;53819.63;;;-139.68;91.19
10940;BME280;5522;42.696;23.494;2023-02-14T11:12:55;53833.72;;;-139.68;91.29
10940;BME280;5522;42.696;23.494;2023-02-14T11:15:25;53797.53;;;-139.68;94.20
10940;BME280;5522;42.696;23.494;2023-02-14T11:18:08;53795.50;;;-139.68;92.96
10940;BME280;5522;42.696;23.494;2023-02-14T11:20:40;53795.50;;;-139.68;92.47
10940;BME280;5522;42.696;23.494;2023-02-14T11:23:19;53825.66;;;-139.68;91.22
10940;BME280;5522;42.696;23.494;2023-02-14T11:25:50;53815.63;;;-139.68;92.30
10940;BME280;5522;42.696;23.494;2023-02-14T11:28:18;53805.56;;;-139.68;92.66
10940;BME280;5522;42.696;23.494;2023-02-14T11:30:47;53823.66;;;-139.68;93.65
10940;BME280;5522;42.696;23.494;2023-02-14T11:33:27;53847.78;;;-139.68;93.25
10940;BME280;5522;42.696;23.494;2023-02-14T11:35:55;53807.56;;;-139.68;92.57
10940;BME280;5522;42.696;23.494;2023-02-14T11:38:27;53811.59;;;-139.68;92.37
10940;BME280;5522;42.696;23.494;2023-02-14T11:40:56;53819.63;;;-139.68;92.75
10940;BME280;5522;42.696;23.494;2023-02-14T11:43:30;53775.41;;;-139.68;93.17
10940;BME280;5522;42.696;23.494;2023-02-14T11:46:13;53839.75;;;-139.68;92.11
10940;BME280;5522;42.696;23.494;2023-02-14T11:48:54;53831.69;;;-139.68;91.02
10940;BME280;5522;42.696;23.494;2023-02-14T11:51:26;53813.59;;;-139.68;90.33
10940;BME280;5522;42.696;23.494;2023-02-14T11:53:57;53803.56;;;-139.68;88.53
10940;BME280;5522;42.696;23.494;2023-02-14T11:56:44;53823.66;;;-139.68;88.05
10940;BME280;5522;42.696;23.494;2023-02-14T11:59:18;53819.63;;;-139.68;86.77
10940;BME280;5522;42.696;23.494;2023-02-14T12:01:47;53823.66;;;-139.68;87.05
10940;BME280;5522;42.696;23.494;2023-02-14T12:04:18;53851.81;;;-139.68;85.11
10940;BME280;5522;42.696;23.494;2023-02-14T12:06:46;53807.56;;;-139.68;84.01
10940;BME280;5522;42.696;23.494;2023-02-14T12:09:24;53821.66;;;-139.68;82.76
10940;BME280;5522;42.696;23.494;2023-02-14T12:11:56;53843.75;;;-139.68;82.69
10940;BME280;5522;42.696;23.494;2023-02-14T12:14:26;53827.69;;;-139.68;84.43
10940;BME280;5522;42.696;23.494;2023-02-14T12:16:59;53789.47;;;-139.68;83.41
10940;BME280;5522;42.696;23.494;2023-02-14T12:19:33;53827.69;;;-139.68;86.21
10940;BME280;5522;42.696;23.494;2023-02-14T12:22:04;53809.59;;;-139.68;86.09
10940;BME280;5522;42.696;23.494;2023-02-14T12:24:35;53805.56;;;-139.68;87.29
10940;BME280;5522;42.696;23.494;2023-02-14T12:27:16;53799.53;;;-139.68;87.18
10940;BME280;5522;42.696;23.494;2023-02-14T12:29:48;53837.72;;;-139.68;83.02
10940;BME280;5522;42.696;23.494;2023-02-14T12:32:20;53829.69;;;-139.68;80.37
10940;BME280;5522;42.696;23.494;2023-02-14T12:34:48;53809.59;;;-139.68;77.23
10940;BME280;5522;42.696;23.494;2023-02-14T12:37:27;53831.69;;;-139.68;72.63
10940;BME280;5522;42.696;23.494;2023-02-14T12:40:11;53835.72;;;-139.68;71.77
10940;BME280;5522;42.696;23.494;2023-02-14T12:42:52;53837.72;;;-139.68;72.56
10940;BME280;5522;42.696;23.494;2023-02-14T12:45:26;53849.78;;;-139.68;72.97
10940;BME280;5522;42.696;23.494;2023-02-14T12:48:03;53815.63;;;-139.68;74.62
10940;BME280;5522;42.696;23.494;2023-02-14T12:50:42;53767.38;;;-139.68;77.28
10940;BME280;5522;42.696;23.494;2023-02-14T12:53:34;53831.69;;;-139.68;79.67
10940;BME280;5522;42.696;23.494;2023-02-14T12:56:11;53801.53;;;-139.68;81.11
10940;BME280;5522;42.696;23.494;2023-02-14T12:58:51;53783.44;;;-139.68;81.11
10940;BME280;5522;42.696;23.494;2023-02-14T13:01:42;53823.66;;;-139.68;82.26
10940;BME280;5522;42.696;23.494;2023-02-14T13:07:32;53805.56;;;-139.68;82.73
10940;BME280;5522;42.696;23.494;2023-02-14T13:10:12;53807.56;;;-139.68;85.12